sensor_id;sensor_type;location;lat;lon;timestamp;temperature;humidity
6792;DHT22;3433;48.730;9.108;2023-12-29T00:00:32;9.70;99.90
6792;DHT22;3433;48.730;9.108;2023-12-29T00:03:20;9.90;99.90
6792;DHT22;3433;48.730;9.108;2023-12-29T00:06:07;10.00;99.90
6792;DHT22;3433;48.730;9.108;2023-12-29T00:08:54;9.80;99.90
6792;DHT22;3433;48.730;9.108;2023-12-29T00:11:42;9.80;99.90
6792;DHT22;3433;48.730;9.108;2023-12-29T00:14:29;9.80;99.90
6792;DHT22;3433;48.730;9.108;2023-12-29T00:17:16;9.70;99.90
6792;DHT22;3433;48.730;9.108;2023-12-29T00:20:06;9.80;99.90
6792;DHT22;3433;48.730;9.108;2023-12-29T00:22:54;9.80;99.90
6792;DHT22;3433;48.730;9.108;2023-12-29T00:25:44;9.70;99.90
6792;DHT22;3433;48.730;9.108;2023-12-29T00:28:31;9.80;99.90
6792;DHT22;3433;48.730;9.108;2023-12-29T00:31:18;9.60;99.90
6792;DHT22;3433;48.730;9.108;2023-12-29T00:34:05;9.70;99.90
6792;DHT22;3433;48.730;9.108;2023-12-29T00:36:54;9.80;99.90
6792;DHT22;3433;48.730;9.108;2023-12-29T00:39:41;9.90;99.90
6792;DHT22;3433;48.730;9.108;2023-12-29T00:42:28;9.80;99.90
6792;DHT22;3433;48.730;9.108;2023-12-29T00:45:16;9.90;99.90
6792;DHT22;3433;48.730;9.108;2023-12-29T00:48:03;9.90;99.90
6792;DHT22;3433;48.730;9.108;2023-12-29T00:50:51;9.70;99.90
6792;DHT22;3433;48.730;9.108;2023-12-29T00:53:39;9.70;99.90
6792;DHT22;3433;48.730;9.108;2023-12-29T00:56:26;9.60;99.90
6792;DHT22;3433;48.730;9.108;2023-12-29T00:59:13;9.80;99.90
6792;DHT22;3433;48.730;9.108;2023-12-29T01:02:01;9.70;99.90
6792;DHT22;3433;48.730;9.108;2023-12-29T01:04:48;9.90;99.90
6792;DHT22;3433;48.730;9.108;2023-12-29T01:07:35;9.90;99.90
6792;DHT22;3433;48.730;9.108;2023-12-29T01:10:24;10.00;99.90
6792;DHT22;3433;48.730;9.108;2023-12-29T01:13:11;9.90;99.90
6792;DHT22;3433;48.730;9.108;2023-12-29T01:15:58;10.00;99.90
6792;DHT22;3433;48.730;9.108;2023-12-29T01:18:46;10.00;99.90
6792;DHT22;3433;48.730;9.108;2023-12-29T01:21:33;10.10;99.90
6792;DHT22;3433;48.730;9.108;2023-12-29T01:24:20;10.00;99.90
6792;DHT22;3433;48.730;9.108;2023-12-29T01:27:09;10.10;99.90
6792;DHT22;3433;48.730;9.108;2023-12-29T01:29:56;9.90;99.90
6792;DHT22;3433;48.730;9.108;2023-12-29T01:32:43;10.00;99.90
6792;DHT22;3433;48.730;9.108;2023-12-29T01:35:30;9.90;99.90
6792;DHT22;3433;48.730;9.108;2023-12-29T01:38:17;9.80;99.90
6792;DHT22;3433;48.730;9.108;2023-12-29T01:41:04;9.70;99.90
6792;DHT22;3433;48.730;9.108;2023-12-29T01:46:45;9.80;99.90
6792;DHT22;3433;48.730;9.108;2023-12-29T01:49:34;9.80;99.90
6792;DHT22;3433;48.730;9.108;2023-12-29T01:52:21;9.80;99.90
6792;DHT22;3433;48.730;9.108;2023-12-29T01:55:10;9.80;99.90
6792;DHT22;3433;48.730;9.108;2023-12-29T01:57:59;9.90;99.90
6792;DHT22;3433;48.730;9.108;2023-12-29T02:00:47;9.80;99.90
6792;DHT22;3433;48.730;9.108;2023-12-29T02:03:36;9.80;99.90
6792;DHT22;3433;48.730;9.108;2023-12-29T02:06:24;9.80;99.90
6792;DHT22;3433;48.730;9.108;2023-12-29T02:09:12;9.80;99.90
6792;DHT22;3433;48.730;9.108;2023-12-29T02:12:00;9.70;99.90
6792;DHT22;3433;48.730;9.108;2023-12-29T02:14:48;9.80;99.90
6792;DHT22;3433;48.730;9.108;2023-12-29T02:17:38;9.70;99.90
6792;DHT22;3433;48.730;9.108;2023-12-29T02:20:28;9.70;99.90
6792;DHT22;3433;48.730;9.108;2023-12-29T02:23:16;9.70;99.90
6792;DHT22;3433;48.730;9.108;2023-12-29T02:26:09;9.60;99.90
6792;DHT22;3433;48.730;9.108;2023-12-29T02:29:00;9.60;99.90
6792;DHT22;3433;48.730;9.108;2023-12-29T02:31:51;9.70;99.90
6792;DHT22;3433;48.730;9.108;2023-12-29T02:34:40;9.80;99.90
6792;DHT22;3433;48.730;9.108;2023-12-29T02:37:28;9.80;99.90
6792;DHT22;3433;48.730;9.108;2023-12-29T02:40:16;9.70;99.90
6792;DHT22;3433;48.730;9.108;2023-12-29T02:43:05;9.70;99.90
6792;DHT22;3433;48.730;9.108;2023-12-29T02:45:52;9.70;99.90
6792;DHT22;3433;48.730;9.108;2023-12-29T02:48:39;9.60;99.90
6792;DHT22;3433;48.730;9.108;2023-12-29T02:51:26;9.50;99.90
6792;DHT22;3433;48.730;9.108;2023-12-29T02:54:14;9.50;99.90
6792;DHT22;3433;48.730;9.108;2023-12-29T02:57:01;9.60;99.90
6792;DHT22;3433;48.730;9.108;2023-12-29T02:59:49;9.50;99.90
6792;DHT22;3433;48.730;9.108;2023-12-29T03:02:36;9.40;99.90
6792;DHT22;3433;48.730;9.108;2023-12-29T03:05:24;9.40;99.90
6792;DHT22;3433;48.730;9.108;2023-12-29T03:08:11;9.50;99.90
6792;DHT22;3433;48.730;9.108;2023-12-29T03:10:58;9.60;99.90
6792;DHT22;3433;48.730;9.108;2023-12-29T03:13:46;9.70;99.90
6792;DHT22;3433;48.730;9.108;2023-12-29T03:16:34;9.70;99.90
6792;DHT22;3433;48.730;9.108;2023-12-29T03:19:21;9.70;99.90
6792;DHT22;3433;48.730;9.108;2023-12-29T03:22:08;9.60;99.90
6792;DHT22;3433;48.730;9.108;2023-12-29T03:24:56;9.60;99.90
6792;DHT22;3433;48.730;9.108;2023-12-29T03:27:43;9.50;99.90
6792;DHT22;3433;48.730;9.108;2023-12-29T03:30:30;9.60;99.90
6792;DHT22;3433;48.730;9.108;2023-12-29T03:33:19;9.60;99.90
6792;DHT22;3433;48.730;9.108;2023-12-29T03:36:06;9.60;99.90
6792;DHT22;3433;48.730;9.108;2023-12-29T03:38:55;9.50;99.90
6792;DHT22;3433;48.730;9.108;2023-12-29T03:41:42;9.50;99.90
6792;DHT22;3433;48.730;9.108;2023-12-29T03:44:29;9.50;99.90
6792;DHT22;3433;48.730;9.108;2023-12-29T03:47:17;9.60;99.90
6792;DHT22;3433;48.730;9.108;2023-12-29T03:50:06;9.60;99.90
6792;DHT22;3433;48.730;9.108;2023-12-29T03:52:53;9.60;99.90
6792;DHT22;3433;48.730;9.108;2023-12-29T03:55:41;9.60;99.90
6792;DHT22;3433;48.730;9.108;2023-12-29T03:58:28;9.60;99.90
6792;DHT22;3433;48.730;9.108;2023-12-29T04:01:16;9.70;99.90
6792;DHT22;3433;48.730;9.108;2023-12-29T04:04:04;9.70;99.90
6792;DHT22;3433;48.730;9.108;2023-12-29T04:06:52;9.50;99.90
6792;DHT22;3433;48.730;9.108;2023-12-29T04:09:40;9.60;99.90
6792;DHT22;3433;48.730;9.108;2023-12-29T04:12:27;9.40;99.90
6792;DHT22;3433;48.730;9.108;2023-12-29T04:15:14;9.40;99.90
6792;DHT22;3433;48.730;9.108;2023-12-29T04:18:01;9.40;99.90
6792;DHT22;3433;48.730;9.108;2023-12-29T04:20:49;9.40;99.90
6792;DHT22;3433;48.730;9.108;2023-12-29T04:23:37;9.40;99.90
6792;DHT22;3433;48.730;9.108;2023-12-29T04:26:25;9.30;99.90
6792;DHT22;3433;48.730;9.108;2023-12-29T04:29:12;9.40;99.90
6792;DHT22;3433;48.730;9.108;2023-12-29T04:31:59;9.30;99.90
6792;DHT22;3433;48.730;9.108;2023-12-29T04:34:46;9.50;99.90
6792;DHT22;3433;48.730;9.108;2023-12-29T04:37:33;9.40;99.90
6792;DHT22;3433;48.730;9.108;2023-12-29T04:40:22;9.50;99.90
6792;DHT22;3433;48.730;9.108;2023-12-29T04:43:09;9.50;99.90
6792;DHT22;3433;48.730;9.108;2023-12-29T04:45:56;9.30;99.90
6792;DHT22;3433;48.730;9.108;2023-12-29T04:48:44;9.30;99.90
6792;DHT22;3433;48.730;9.108;2023-12-29T04:51:31;9.40;99.90
6792;DHT22;3433;48.730;9.108;2023-12-29T04:54:18;9.40;99.90
6792;DHT22;3433;48.730;9.108;2023-12-29T04:57:06;9.40;99.90
6792;DHT22;3433;48.730;9.108;2023-12-29T04:59:54;9.70;99.90
6792;DHT22;3433;48.730;9.108;2023-12-29T05:02:41;9.30;99.90
6792;DHT22;3433;48.730;9.108;2023-12-29T05:05:28;9.30;99.90
6792;DHT22;3433;48.730;9.108;2023-12-29T05:08:16;9.40;99.90
6792;DHT22;3433;48.730;9.108;2023-12-29T05:11:03;9.60;99.90
6792;DHT22;3433;48.730;9.108;2023-12-29T05:13:52;9.50;99.90
6792;DHT22;3433;48.730;9.108;2023-12-29T05:16:39;9.60;99.90
6792;DHT22;3433;48.730;9.108;2023-12-29T05:19:27;9.50;99.90
6792;DHT22;3433;48.730;9.108;2023-12-29T05:22:14;9.60;99.90
6792;DHT22;3433;48.730;9.108;2023-12-29T05:25:03;9.80;99.90
6792;DHT22;3433;48.730;9.108;2023-12-29T05:27:51;9.70;99.90
6792;DHT22;3433;48.730;9.108;2023-12-29T05:30:39;9.70;99.90
6792;DHT22;3433;48.730;9.108;2023-12-29T05:33:26;9.70;99.90
6792;DHT22;3433;48.730;9.108;2023-12-29T05:36:14;9.90;99.90
6792;DHT22;3433;48.730;9.108;2023-12-29T05:39:01;10.00;99.90
6792;DHT22;3433;48.730;9.108;2023-12-29T05:41:49;9.90;99.90
6792;DHT22;3433;48.730;9.108;2023-12-29T05:44:37;9.90;99.90
6792;DHT22;3433;48.730;9.108;2023-12-29T05:47:25;9.90;99.90
6792;DHT22;3433;48.730;9.108;2023-12-29T05:50:13;9.80;99.90
6792;DHT22;3433;48.730;9.108;2023-12-29T05:53:00;9.80;99.90
6792;DHT22;3433;48.730;9.108;2023-12-29T05:55:48;9.70;99.90
6792;DHT22;3433;48.730;9.108;2023-12-29T05:58:35;9.90;99.90
6792;DHT22;3433;48.730;9.108;2023-12-29T06:01:22;9.70;99.90
6792;DHT22;3433;48.730;9.108;2023-12-29T06:04:11;9.70;99.90
6792;DHT22;3433;48.730;9.108;2023-12-29T06:06:58;9.70;99.90
6792;DHT22;3433;48.730;9.108;2023-12-29T06:09:46;9.80;99.90
6792;DHT22;3433;48.730;9.108;2023-12-29T06:12:33;9.70;99.90
6792;DHT22;3433;48.730;9.108;2023-12-29T06:15:20;9.80;99.90
6792;DHT22;3433;48.730;9.108;2023-12-29T06:18:08;9.80;99.90
6792;DHT22;3433;48.730;9.108;2023-12-29T06:20:56;9.70;99.90
6792;DHT22;3433;48.730;9.108;2023-12-29T06:23:44;9.70;99.90
6792;DHT22;3433;48.730;9.108;2023-12-29T06:26:32;9.80;99.90
6792;DHT22;3433;48.730;9.108;2023-12-29T06:29:19;9.60;99.90
6792;DHT22;3433;48.730;9.108;2023-12-29T06:32:06;9.50;99.90
6792;DHT22;3433;48.730;9.108;2023-12-29T06:34:54;9.60;99.90
6792;DHT22;3433;48.730;9.108;2023-12-29T06:37:42;9.40;99.90
6792;DHT22;3433;48.730;9.108;2023-12-29T06:40:29;9.50;99.90
6792;DHT22;3433;48.730;9.108;2023-12-29T06:43:17;9.80;99.90
6792;DHT22;3433;48.730;9.108;2023-12-29T06:46:04;9.80;99.90
6792;DHT22;3433;48.730;9.108;2023-12-29T06:48:52;9.80;99.90
6792;DHT22;3433;48.730;9.108;2023-12-29T06:51:39;9.80;99.90
6792;DHT22;3433;48.730;9.108;2023-12-29T06:54:28;9.80;99.90
6792;DHT22;3433;48.730;9.108;2023-12-29T06:57:15;9.70;99.90
6792;DHT22;3433;48.730;9.108;2023-12-29T07:00:04;9.60;99.90
6792;DHT22;3433;48.730;9.108;2023-12-29T07:02:52;9.70;99.90
6792;DHT22;3433;48.730;9.108;2023-12-29T07:05:39;9.60;99.90
6792;DHT22;3433;48.730;9.108;2023-12-29T07:08:26;9.90;99.90
6792;DHT22;3433;48.730;9.108;2023-12-29T07:11:15;9.90;99.90
6792;DHT22;3433;48.730;9.108;2023-12-29T07:14:02;9.70;99.90
6792;DHT22;3433;48.730;9.108;2023-12-29T07:16:49;9.70;99.90
6792;DHT22;3433;48.730;9.108;2023-12-29T07:19:37;9.60;99.90
6792;DHT22;3433;48.730;9.108;2023-12-29T07:22:24;9.60;99.90
6792;DHT22;3433;48.730;9.108;2023-12-29T07:25:11;9.70;99.90
6792;DHT22;3433;48.730;9.108;2023-12-29T07:28:00;9.90;99.90
6792;DHT22;3433;48.730;9.108;2023-12-29T07:30:47;9.90;99.90
6792;DHT22;3433;48.730;9.108;2023-12-29T07:33:35;10.00;99.90
6792;DHT22;3433;48.730;9.108;2023-12-29T07:36:22;9.80;99.90
6792;DHT22;3433;48.730;9.108;2023-12-29T07:39:09;9.80;99.90
6792;DHT22;3433;48.730;9.108;2023-12-29T07:41:56;9.80;99.90
6792;DHT22;3433;48.730;9.108;2023-12-29T07:44:45;10.00;99.90
6792;DHT22;3433;48.730;9.108;2023-12-29T07:47:32;10.00;99.90
6792;DHT22;3433;48.730;9.108;2023-12-29T07:50:20;10.00;99.90
6792;DHT22;3433;48.730;9.108;2023-12-29T07:53:07;9.90;99.90
6792;DHT22;3433;48.730;9.108;2023-12-29T07:55:54;9.80;99.90
6792;DHT22;3433;48.730;9.108;2023-12-29T07:58:41;9.80;99.90
6792;DHT22;3433;48.730;9.108;2023-12-29T08:01:30;9.80;99.90
6792;DHT22;3433;48.730;9.108;2023-12-29T08:04:17;9.70;99.90
6792;DHT22;3433;48.730;9.108;2023-12-29T08:07:04;9.60;99.90
6792;DHT22;3433;48.730;9.108;2023-12-29T08:09:52;9.80;99.90
6792;DHT22;3433;48.730;9.108;2023-12-29T08:12:39;9.90;99.90
6792;DHT22;3433;48.730;9.108;2023-12-29T08:15:26;9.90;99.90
6792;DHT22;3433;48.730;9.108;2023-12-29T08:18:15;9.90;99.90
6792;DHT22;3433;48.730;9.108;2023-12-29T08:21:02;10.00;99.90
6792;DHT22;3433;48.730;9.108;2023-12-29T08:23:49;9.90;99.90
6792;DHT22;3433;48.730;9.108;2023-12-29T08:26:44;9.90;99.90
6792;DHT22;3433;48.730;9.108;2023-12-29T08:29:32;9.90;99.90
6792;DHT22;3433;48.730;9.108;2023-12-29T08:32:19;10.00;99.90
6792;DHT22;3433;48.730;9.108;2023-12-29T08:35:08;10.20;99.90
6792;DHT22;3433;48.730;9.108;2023-12-29T08:37:55;10.20;99.90
6792;DHT22;3433;48.730;9.108;2023-12-29T08:40:42;10.10;99.90
6792;DHT22;3433;48.730;9.108;2023-12-29T08:43:30;10.30;99.90
6792;DHT22;3433;48.730;9.108;2023-12-29T08:46:17;10.20;99.90
6792;DHT22;3433;48.730;9.108;2023-12-29T08:49:04;10.20;99.90
6792;DHT22;3433;48.730;9.108;2023-12-29T08:51:54;10.10;99.90
6792;DHT22;3433;48.730;9.108;2023-12-29T08:54:41;10.30;99.90
6792;DHT22;3433;48.730;9.108;2023-12-29T08:57:28;10.30;99.90
6792;DHT22;3433;48.730;9.108;2023-12-29T09:00:16;10.20;99.90
6792;DHT22;3433;48.730;9.108;2023-12-29T09:03:04;10.10;99.90
6792;DHT22;3433;48.730;9.108;2023-12-29T09:05:51;10.20;99.90
6792;DHT22;3433;48.730;9.108;2023-12-29T09:08:39;10.00;99.90
6792;DHT22;3433;48.730;9.108;2023-12-29T09:11:27;10.10;99.90
6792;DHT22;3433;48.730;9.108;2023-12-29T09:14:14;10.10;99.90
6792;DHT22;3433;48.730;9.108;2023-12-29T09:17:02;10.10;99.90
6792;DHT22;3433;48.730;9.108;2023-12-29T09:19:51;10.00;99.90
6792;DHT22;3433;48.730;9.108;2023-12-29T09:22:38;10.10;99.90
6792;DHT22;3433;48.730;9.108;2023-12-29T09:25:26;10.00;99.90
6792;DHT22;3433;48.730;9.108;2023-12-29T09:28:14;10.10;99.90
6792;DHT22;3433;48.730;9.108;2023-12-29T09:31:01;10.10;99.90
6792;DHT22;3433;48.730;9.108;2023-12-29T09:33:48;10.20;99.90
6792;DHT22;3433;48.730;9.108;2023-12-29T09:36:36;10.20;99.90
6792;DHT22;3433;48.730;9.108;2023-12-29T09:39:23;10.20;99.90
6792;DHT22;3433;48.730;9.108;2023-12-29T09:42:19;10.10;99.90
6792;DHT22;3433;48.730;9.108;2023-12-29T09:45:09;10.30;99.90
6792;DHT22;3433;48.730;9.108;2023-12-29T09:47:58;10.30;99.90
6792;DHT22;3433;48.730;9.108;2023-12-29T09:50:50;10.30;99.90
6792;DHT22;3433;48.730;9.108;2023-12-29T09:53:38;10.40;99.90
6792;DHT22;3433;48.730;9.108;2023-12-29T09:56:13;10.50;99.90
6792;DHT22;3433;48.730;9.108;2023-12-29T09:58:42;10.40;99.90
6792;DHT22;3433;48.730;9.108;2023-12-29T10:01:10;10.40;99.90
6792;DHT22;3433;48.730;9.108;2023-12-29T10:03:37;10.40;99.90
6792;DHT22;3433;48.730;9.108;2023-12-29T10:06:06;10.40;99.90
6792;DHT22;3433;48.730;9.108;2023-12-29T10:08:34;10.40;99.90
6792;DHT22;3433;48.730;9.108;2023-12-29T10:11:05;10.30;99.90
6792;DHT22;3433;48.730;9.108;2023-12-29T10:13:33;10.40;99.90
6792;DHT22;3433;48.730;9.108;2023-12-29T10:16:08;10.60;99.90
6792;DHT22;3433;48.730;9.108;2023-12-29T10:18:39;10.60;99.90
6792;DHT22;3433;48.730;9.108;2023-12-29T10:21:16;10.70;99.90
6792;DHT22;3433;48.730;9.108;2023-12-29T10:23:50;10.80;99.90
6792;DHT22;3433;48.730;9.108;2023-12-29T10:26:20;10.80;99.90
6792;DHT22;3433;48.730;9.108;2023-12-29T10:28:47;10.60;99.90
6792;DHT22;3433;48.730;9.108;2023-12-29T10:31:16;10.80;99.90
6792;DHT22;3433;48.730;9.108;2023-12-29T10:33:43;10.70;99.90
6792;DHT22;3433;48.730;9.108;2023-12-29T10:36:12;10.90;99.90
6792;DHT22;3433;48.730;9.108;2023-12-29T10:38:39;10.90;99.90
6792;DHT22;3433;48.730;9.108;2023-12-29T10:41:11;11.20;99.90
6792;DHT22;3433;48.730;9.108;2023-12-29T10:43:39;11.10;99.90
6792;DHT22;3433;48.730;9.108;2023-12-29T10:46:07;11.20;99.90
6792;DHT22;3433;48.730;9.108;2023-12-29T10:48:36;11.30;99.90
6792;DHT22;3433;48.730;9.108;2023-12-29T10:51:03;11.50;99.90
6792;DHT22;3433;48.730;9.108;2023-12-29T10:53:31;11.50;99.90
6792;DHT22;3433;48.730;9.108;2023-12-29T10:55:58;11.50;99.90
6792;DHT22;3433;48.730;9.108;2023-12-29T10:58:25;11.40;99.90
6792;DHT22;3433;48.730;9.108;2023-12-29T11:00:54;11.50;99.90
6792;DHT22;3433;48.730;9.108;2023-12-29T11:03:22;11.60;99.90
6792;DHT22;3433;48.730;9.108;2023-12-29T11:05:51;11.50;99.90
6792;DHT22;3433;48.730;9.108;2023-12-29T11:08:19;11.40;99.90
6792;DHT22;3433;48.730;9.108;2023-12-29T11:10:48;11.40;99.90
6792;DHT22;3433;48.730;9.108;2023-12-29T11:13:15;11.40;99.90
6792;DHT22;3433;48.730;9.108;2023-12-29T11:15:43;11.30;99.90
6792;DHT22;3433;48.730;9.108;2023-12-29T11:18:13;11.50;99.90
6792;DHT22;3433;48.730;9.108;2023-12-29T11:20:41;11.60;99.90
6792;DHT22;3433;48.730;9.108;2023-12-29T11:23:10;11.50;99.90
6792;DHT22;3433;48.730;9.108;2023-12-29T11:25:39;11.50;99.90
6792;DHT22;3433;48.730;9.108;2023-12-29T11:28:08;11.50;99.90
6792;DHT22;3433;48.730;9.108;2023-12-29T11:30:36;11.50;99.90
6792;DHT22;3433;48.730;9.108;2023-12-29T11:33:07;11.60;99.90
6792;DHT22;3433;48.730;9.108;2023-12-29T11:35:39;11.60;99.90
6792;DHT22;3433;48.730;9.108;2023-12-29T11:38:23;11.80;99.90
6792;DHT22;3433;48.730;9.108;2023-12-29T11:40:57;11.90;99.90
6792;DHT22;3433;48.730;9.108;2023-12-29T11:43:29;11.60;99.90
6792;DHT22;3433;48.730;9.108;2023-12-29T11:45:55;11.50;99.90
6792;DHT22;3433;48.730;9.108;2023-12-29T11:48:53;11.60;99.90
6792;DHT22;3433;48.730;9.108;2023-12-29T11:51:31;11.70;99.90
6792;DHT22;3433;48.730;9.108;2023-12-29T11:54:01;11.60;99.90
6792;DHT22;3433;48.730;9.108;2023-12-29T11:56:37;11.60;99.90
6792;DHT22;3433;48.730;9.108;2023-12-29T11:59:16;11.70;99.90
6792;DHT22;3433;48.730;9.108;2023-12-29T12:01:43;11.70;99.90
6792;DHT22;3433;48.730;9.108;2023-12-29T12:04:35;11.80;99.90
6792;DHT22;3433;48.730;9.108;2023-12-29T12:07:03;11.90;99.90
6792;DHT22;3433;48.730;9.108;2023-12-29T12:09:32;11.80;99.90
6792;DHT22;3433;48.730;9.108;2023-12-29T12:12:00;11.80;99.90
6792;DHT22;3433;48.730;9.108;2023-12-29T12:14:44;11.70;99.90
6792;DHT22;3433;48.730;9.108;2023-12-29T12:17:11;11.60;99.90
6792;DHT22;3433;48.730;9.108;2023-12-29T12:19:39;11.50;99.90
6792;DHT22;3433;48.730;9.108;2023-12-29T12:22:06;11.50;99.90
6792;DHT22;3433;48.730;9.108;2023-12-29T12:24:37;11.70;99.90
6792;DHT22;3433;48.730;9.108;2023-12-29T12:27:09;11.70;99.90
6792;DHT22;3433;48.730;9.108;2023-12-29T12:29:36;11.60;99.90
6792;DHT22;3433;48.730;9.108;2023-12-29T12:32:04;11.50;99.90
6792;DHT22;3433;48.730;9.108;2023-12-29T12:34:37;11.40;99.90
6792;DHT22;3433;48.730;9.108;2023-12-29T12:37:04;11.50;99.90
6792;DHT22;3433;48.730;9.108;2023-12-29T12:39:39;11.50;99.90
6792;DHT22;3433;48.730;9.108;2023-12-29T12:42:06;11.60;99.90
6792;DHT22;3433;48.730;9.108;2023-12-29T12:44:33;11.70;99.90
6792;DHT22;3433;48.730;9.108;2023-12-29T12:47:07;11.80;99.90
6792;DHT22;3433;48.730;9.108;2023-12-29T12:49:35;11.90;99.90
6792;DHT22;3433;48.730;9.108;2023-12-29T12:52:03;11.80;99.90
6792;DHT22;3433;48.730;9.108;2023-12-29T12:54:30;12.00;99.90
6792;DHT22;3433;48.730;9.108;2023-12-29T12:56:59;11.90;99.90
6792;DHT22;3433;48.730;9.108;2023-12-29T12:59:27;12.00;99.90
6792;DHT22;3433;48.730;9.108;2023-12-29T13:01:54;11.90;99.90
6792;DHT22;3433;48.730;9.108;2023-12-29T13:04:22;11.90;99.90
6792;DHT22;3433;48.730;9.108;2023-12-29T13:06:48;11.90;99.90
6792;DHT22;3433;48.730;9.108;2023-12-29T13:09:17;12.00;99.90
6792;DHT22;3433;48.730;9.108;2023-12-29T13:11:45;12.10;99.90
6792;DHT22;3433;48.730;9.108;2023-12-29T13:14:21;12.30;99.90
6792;DHT22;3433;48.730;9.108;2023-12-29T13:16:48;12.40;99.90
6792;DHT22;3433;48.730;9.108;2023-12-29T13:19:19;12.40;99.90
6792;DHT22;3433;48.730;9.108;2023-12-29T13:21:47;12.40;99.90
6792;DHT22;3433;48.730;9.108;2023-12-29T13:24:14;12.30;99.90
6792;DHT22;3433;48.730;9.108;2023-12-29T13:26:44;12.30;99.90
6792;DHT22;3433;48.730;9.108;2023-12-29T13:29:12;12.30;99.90
6792;DHT22;3433;48.730;9.108;2023-12-29T13:31:41;12.50;99.90
6792;DHT22;3433;48.730;9.108;2023-12-29T13:34:14;12.50;99.90
6792;DHT22;3433;48.730;9.108;2023-12-29T13:36:48;12.30;99.90
6792;DHT22;3433;48.730;9.108;2023-12-29T13:39:25;12.10;99.90
6792;DHT22;3433;48.730;9.108;2023-12-29T13:41:55;12.10;99.90
6792;DHT22;3433;48.730;9.108;2023-12-29T13:44:24;12.10;99.90
6792;DHT22;3433;48.730;9.108;2023-12-29T13:46:54;11.90;99.90
6792;DHT22;3433;48.730;9.108;2023-12-29T13:49:22;12.00;99.90
6792;DHT22;3433;48.730;9.108;2023-12-29T13:51:49;11.90;99.90
6792;DHT22;3433;48.730;9.108;2023-12-29T13:54:17;11.90;99.90
6792;DHT22;3433;48.730;9.108;2023-12-29T13:56:54;12.00;99.90
6792;DHT22;3433;48.730;9.108;2023-12-29T13:59:29;11.90;99.90
6792;DHT22;3433;48.730;9.108;2023-12-29T14:02:15;11.90;99.90
6792;DHT22;3433;48.730;9.108;2023-12-29T14:04:45;11.90;99.90
6792;DHT22;3433;48.730;9.108;2023-12-29T14:07:12;11.90;99.90
6792;DHT22;3433;48.730;9.108;2023-12-29T14:09:39;12.00;99.90
6792;DHT22;3433;48.730;9.108;2023-12-29T14:12:07;11.90;99.90
6792;DHT22;3433;48.730;9.108;2023-12-29T14:14:34;11.80;99.90
6792;DHT22;3433;48.730;9.108;2023-12-29T14:17:02;11.70;99.90
6792;DHT22;3433;48.730;9.108;2023-12-29T14:19:34;11.70;99.90
6792;DHT22;3433;48.730;9.108;2023-12-29T14:22:02;11.90;99.90
6792;DHT22;3433;48.730;9.108;2023-12-29T14:24:29;11.70;99.90
6792;DHT22;3433;48.730;9.108;2023-12-29T14:26:56;11.60;99.90
6792;DHT22;3433;48.730;9.108;2023-12-29T14:29:25;11.60;99.90
6792;DHT22;3433;48.730;9.108;2023-12-29T14:31:52;11.70;99.90
6792;DHT22;3433;48.730;9.108;2023-12-29T14:34:22;11.70;99.90
6792;DHT22;3433;48.730;9.108;2023-12-29T14:36:49;11.70;99.90
6792;DHT22;3433;48.730;9.108;2023-12-29T14:39:18;11.70;99.90
6792;DHT22;3433;48.730;9.108;2023-12-29T14:41:45;11.80;99.90
6792;DHT22;3433;48.730;9.108;2023-12-29T14:44:12;12.00;99.90
6792;DHT22;3433;48.730;9.108;2023-12-29T14:46:40;12.10;99.90
6792;DHT22;3433;48.730;9.108;2023-12-29T14:49:07;12.30;99.90
6792;DHT22;3433;48.730;9.108;2023-12-29T14:51:35;12.30;99.90
6792;DHT22;3433;48.730;9.108;2023-12-29T14:54:02;12.10;99.90
6792;DHT22;3433;48.730;9.108;2023-12-29T14:56:29;11.90;99.90
6792;DHT22;3433;48.730;9.108;2023-12-29T14:58:56;11.90;99.90
6792;DHT22;3433;48.730;9.108;2023-12-29T15:01:23;11.80;99.90
6792;DHT22;3433;48.730;9.108;2023-12-29T15:03:52;11.80;99.90
6792;DHT22;3433;48.730;9.108;2023-12-29T15:06:18;11.90;99.90
6792;DHT22;3433;48.730;9.108;2023-12-29T15:08:47;11.60;99.90
6792;DHT22;3433;48.730;9.108;2023-12-29T15:11:14;11.70;99.90
6792;DHT22;3433;48.730;9.108;2023-12-29T15:13:41;11.60;99.90
6792;DHT22;3433;48.730;9.108;2023-12-29T15:16:08;11.70;99.90
6792;DHT22;3433;48.730;9.108;2023-12-29T15:18:35;11.70;99.90
6792;DHT22;3433;48.730;9.108;2023-12-29T15:21:02;11.70;99.90
6792;DHT22;3433;48.730;9.108;2023-12-29T15:23:29;11.60;99.90
6792;DHT22;3433;48.730;9.108;2023-12-29T15:25:58;11.70;99.90
6792;DHT22;3433;48.730;9.108;2023-12-29T15:28:24;11.80;99.90
6792;DHT22;3433;48.730;9.108;2023-12-29T15:30:51;11.70;99.90
6792;DHT22;3433;48.730;9.108;2023-12-29T15:33:18;11.60;99.90
6792;DHT22;3433;48.730;9.108;2023-12-29T15:35:46;11.70;99.90
6792;DHT22;3433;48.730;9.108;2023-12-29T15:38:12;11.80;99.90
6792;DHT22;3433;48.730;9.108;2023-12-29T15:40:39;11.70;99.90
6792;DHT22;3433;48.730;9.108;2023-12-29T15:43:08;11.70;99.90
6792;DHT22;3433;48.730;9.108;2023-12-29T15:45:34;11.80;99.90
6792;DHT22;3433;48.730;9.108;2023-12-29T15:48:01;11.70;99.90
6792;DHT22;3433;48.730;9.108;2023-12-29T15:50:28;11.60;99.90
6792;DHT22;3433;48.730;9.108;2023-12-29T15:52:55;11.40;99.90
6792;DHT22;3433;48.730;9.108;2023-12-29T15:55:22;11.50;99.90
6792;DHT22;3433;48.730;9.108;2023-12-29T15:57:49;11.40;99.90
6792;DHT22;3433;48.730;9.108;2023-12-29T16:00:18;11.10;99.90
6792;DHT22;3433;48.730;9.108;2023-12-29T16:02:46;11.10;99.90
6792;DHT22;3433;48.730;9.108;2023-12-29T16:05:13;11.20;99.90
6792;DHT22;3433;48.730;9.108;2023-12-29T16:07:40;11.10;99.90
6792;DHT22;3433;48.730;9.108;2023-12-29T16:10:07;11.20;99.90
6792;DHT22;3433;48.730;9.108;2023-12-29T16:12:34;11.30;99.90
6792;DHT22;3433;48.730;9.108;2023-12-29T16:15:01;11.30;99.90
6792;DHT22;3433;48.730;9.108;2023-12-29T16:17:30;11.30;99.90
6792;DHT22;3433;48.730;9.108;2023-12-29T16:19:57;11.20;99.90
6792;DHT22;3433;48.730;9.108;2023-12-29T16:22:24;11.20;99.90
6792;DHT22;3433;48.730;9.108;2023-12-29T16:24:51;11.00;99.90
6792;DHT22;3433;48.730;9.108;2023-12-29T16:27:19;10.90;99.90
6792;DHT22;3433;48.730;9.108;2023-12-29T16:29:46;11.10;99.90
6792;DHT22;3433;48.730;9.108;2023-12-29T16:32:20;11.20;99.90
6792;DHT22;3433;48.730;9.108;2023-12-29T16:34:49;11.30;99.90
6792;DHT22;3433;48.730;9.108;2023-12-29T16:37:16;11.20;99.90
6792;DHT22;3433;48.730;9.108;2023-12-29T16:39:43;11.30;99.90
6792;DHT22;3433;48.730;9.108;2023-12-29T16:42:10;11.20;99.90
6792;DHT22;3433;48.730;9.108;2023-12-29T16:44:41;11.00;99.90
6792;DHT22;3433;48.730;9.108;2023-12-29T16:47:08;10.90;99.90
6792;DHT22;3433;48.730;9.108;2023-12-29T16:49:35;10.80;99.90
6792;DHT22;3433;48.730;9.108;2023-12-29T16:52:03;10.90;99.90
6792;DHT22;3433;48.730;9.108;2023-12-29T16:54:30;10.80;99.90
6792;DHT22;3433;48.730;9.108;2023-12-29T16:56:59;10.90;99.90
6792;DHT22;3433;48.730;9.108;2023-12-29T16:59:26;11.00;99.90
6792;DHT22;3433;48.730;9.108;2023-12-29T17:01:53;11.00;99.90
6792;DHT22;3433;48.730;9.108;2023-12-29T17:04:20;10.80;99.90
6792;DHT22;3433;48.730;9.108;2023-12-29T17:06:47;10.80;99.90
6792;DHT22;3433;48.730;9.108;2023-12-29T17:09:15;10.70;99.90
6792;DHT22;3433;48.730;9.108;2023-12-29T17:11:43;10.60;99.90
6792;DHT22;3433;48.730;9.108;2023-12-29T17:14:10;10.70;99.90
6792;DHT22;3433;48.730;9.108;2023-12-29T17:16:39;10.70;99.90
6792;DHT22;3433;48.730;9.108;2023-12-29T17:19:06;10.70;99.90
6792;DHT22;3433;48.730;9.108;2023-12-29T17:21:33;10.80;99.90
6792;DHT22;3433;48.730;9.108;2023-12-29T17:24:00;10.70;99.90
6792;DHT22;3433;48.730;9.108;2023-12-29T17:26:28;10.50;99.90
6792;DHT22;3433;48.730;9.108;2023-12-29T17:28:56;10.40;99.90